createdAt,value
2022-11-17T13:15:24.871Z,12.20
2022-11-17T13:19:52.740Z,12.40
2022-11-17T13:24:07.207Z,12.40
2022-11-17T13:28:43.891Z,12.40
2022-11-17T13:33:00.467Z,12.30
2022-11-17T13:37:14.613Z,12.40
2022-11-17T13:41:22.022Z,12.40
2022-11-17T13:45:36.700Z,12.50
2022-11-17T13:49:39.298Z,12.40
2022-11-17T13:54:13.546Z,12.30
2022-11-17T13:59:19.085Z,12.30
2022-11-17T14:03:57.218Z,12.30
2022-11-17T14:09:19.823Z,12.20
2022-11-17T14:13:35.817Z,12.20
2022-11-17T14:18:26.440Z,12.10
2022-11-17T14:27:42.767Z,12.10
2022-11-17T14:32:19.984Z,11.90
2022-11-17T14:36:22.294Z,11.90
2022-11-17T14:41:09.889Z,11.80
2022-11-17T14:45:24.603Z,11.90
2022-11-17T14:54:18.824Z,11.90
2022-11-17T14:58:23.236Z,11.90
2022-11-17T15:02:25.373Z,11.80
2022-11-17T15:10:51.448Z,11.60
2022-11-17T15:14:55.905Z,11.50
2022-11-17T15:18:59.320Z,11.50
2022-11-17T15:23:06.769Z,11.50
2022-11-17T15:27:24.220Z,11.40
2022-11-17T15:31:34.181Z,11.30
2022-11-17T15:35:38.639Z,11.30
2022-11-17T15:39:59.064Z,11.20
2022-11-17T15:44:33.753Z,11.10
2022-11-17T15:48:51.050Z,11.10
2022-11-17T15:53:03.983Z,11.10
2022-11-17T15:57:14.393Z,11.00
2022-11-17T16:01:35.883Z,10.90
2022-11-17T16:06:17.395Z,10.90
2022-11-17T16:14:34.539Z,10.80
2022-11-17T16:18:38.474Z,10.80
2022-11-17T16:22:40.113Z,10.80
2022-11-17T16:26:41.858Z,10.70
2022-11-17T16:30:51.927Z,10.70
2022-11-17T16:35:09.167Z,10.60
2022-11-17T16:39:45.895Z,10.60
2022-11-17T16:53:14.274Z,10.50
2022-11-17T16:57:51.727Z,10.50
2022-11-17T17:02:32.088Z,10.40
2022-11-17T17:11:12.141Z,10.40
2022-11-17T17:15:18.148Z,10.40
2022-11-17T17:28:37.516Z,10.30
2022-11-17T17:32:42.440Z,10.20
2022-11-17T17:36:44.723Z,10.30
2022-11-17T17:40:53.011Z,10.30
2022-11-17T18:08:18.317Z,10.10
2022-11-17T18:12:23.323Z,10.00
2022-11-17T18:16:29.953Z,10.00
2022-11-17T18:20:31.820Z,9.90
2022-11-17T18:24:33.926Z,9.90
2022-11-17T18:28:35.840Z,9.90
2022-11-17T18:32:37.704Z,9.90
2022-11-17T18:36:39.533Z,9.80
2022-11-17T18:45:17.844Z,9.80
2022-11-17T18:49:47.524Z,9.90
2022-11-17T18:53:56.240Z,9.80
2022-11-17T18:57:58.404Z,9.80
2022-11-17T19:02:03.283Z,9.80
2022-11-17T19:10:31.856Z,9.80
2022-11-17T19:14:33.938Z,9.80
2022-11-17T19:18:42.502Z,9.80
2022-11-17T19:22:45.886Z,9.80
2022-11-17T19:26:51.399Z,9.80
2022-11-17T19:30:53.236Z,9.90
2022-11-17T19:35:01.331Z,9.80
2022-11-17T19:39:11.132Z,9.90
2022-11-17T19:43:15.483Z,9.90
2022-11-17T19:47:20.938Z,9.90
2022-11-17T19:51:24.351Z,9.90
2022-11-17T19:55:26.198Z,9.90
2022-11-17T19:59:28.907Z,9.90
2022-11-17T20:03:31.571Z,10.00
2022-11-17T20:07:35.014Z,10.00
2022-11-17T20:11:37.392Z,9.90
2022-11-17T20:15:39.235Z,9.80
2022-11-17T20:19:41.790Z,9.80
2022-11-17T20:23:43.689Z,9.70
2022-11-17T20:27:45.888Z,9.60
2022-11-17T20:31:47.615Z,9.60
2022-11-17T20:35:57.265Z,9.60
2022-11-17T20:39:59.195Z,9.50
2022-11-17T20:44:03.719Z,9.60
2022-11-17T20:48:09.149Z,9.50
2022-11-17T20:52:13.474Z,9.50
2022-11-17T20:56:18.642Z,9.50
2022-11-17T21:00:22.366Z,9.40
2022-11-17T21:04:29.655Z,9.40
2022-11-17T21:08:35.375Z,9.30
2022-11-17T21:12:38.226Z,9.30
2022-11-17T21:16:50.433Z,9.10
2022-11-17T21:20:56.202Z,9.00
2022-11-17T21:29:54.414Z,8.90
2022-11-17T21:34:02.890Z,8.70
2022-11-17T21:38:31.952Z,8.70
2022-11-17T21:42:38.743Z,8.60
2022-11-17T21:46:41.144Z,8.70
2022-11-17T21:50:46.109Z,8.70
2022-11-17T21:55:19.634Z,8.80
2022-11-17T21:59:21.727Z,8.80
2022-11-17T22:03:24.113Z,8.70
2022-11-17T22:07:25.821Z,8.50
2022-11-17T22:11:38.359Z,8.50
2022-11-17T22:15:40.321Z,8.50
2022-11-17T22:19:42.380Z,8.40
2022-11-17T22:23:44.075Z,8.40
2022-11-17T22:27:45.743Z,8.30
2022-11-17T22:31:48.610Z,8.30
2022-11-17T22:35:50.273Z,8.20
2022-11-17T22:39:52.443Z,8.10
2022-11-17T22:43:55.084Z,8.10
2022-11-17T22:47:56.678Z,8.10
2022-11-17T22:52:04.581Z,8.10
2022-11-17T22:56:12.570Z,8.10
2022-11-17T23:00:14.722Z,8.10
2022-11-17T23:04:16.527Z,8.10
2022-11-17T23:08:18.231Z,8.10
2022-11-17T23:12:20.361Z,8.20
2022-11-17T23:16:22.557Z,8.30
2022-11-17T23:20:24.341Z,8.20
2022-11-17T23:24:25.918Z,8.20
2022-11-17T23:28:27.670Z,8.20
2022-11-17T23:32:29.402Z,8.10
2022-11-17T23:36:31.026Z,8.00
2022-11-17T23:40:32.842Z,7.90
2022-11-17T23:44:34.852Z,7.90
2022-11-17T23:48:36.508Z,7.80
2022-11-17T23:52:38.237Z,7.90
2022-11-17T23:56:40.210Z,7.90
